Time;durP1;ratioP1;P1;durP2;ratioP2;P2;SDS_P1;SDS_P2;PMS_P1;PMS_P2;Temp;Humidity;BMP_temperature;BMP_pressure;BME280_temperature;BME280_humidity;BME280_pressure;Samples;Min_cycle;Max_cycle;Signal;HPM_P1;HPM_P2
2023/05/25 00:00:49;;;;;;;8.40;5.85;;;23.40;56.30;;;;;;6117611;28;80564;-63
2023/05/25 00:03:51;;;;;;;7.05;5.72;;;23.40;56.30;;;;;;6112454;28;80437;-62
2023/05/25 00:06:51;;;;;;;7.55;5.88;;;23.40;56.20;;;;;;6109997;28;80764;-60
2023/05/25 00:09:52;;;;;;;8.60;6.63;;;23.40;56.20;;;;;;6127354;28;80383;-62
2023/05/25 00:12:55;;;;;;;9.40;6.10;;;23.40;56.20;;;;;;6115100;28;81395;-65
2023/05/25 00:15:56;;;;;;;6.68;5.30;;;23.30;56.20;;;;;;6127574;28;81687;-64
2023/05/25 00:18:56;;;;;;;9.13;5.80;;;23.30;56.20;;;;;;6128863;28;80503;-63
2023/05/25 00:22:00;;;;;;;7.95;5.75;;;23.40;56.20;;;;;;6140844;28;80699;-64
2023/05/25 00:25:01;;;;;;;9.95;5.60;;;23.30;56.20;;;;;;6115343;28;88801;-61
2023/05/25 00:28:03;;;;;;;7.78;5.85;;;23.30;56.20;;;;;;6125323;28;80632;-59
2023/05/25 00:31:04;;;;;;;10.52;5.85;;;23.30;56.20;;;;;;6127021;28;82930;-61
2023/05/25 00:34:04;;;;;;;9.50;5.35;;;23.30;56.20;;;;;;6124448;28;81273;-62
2023/05/25 00:37:05;;;;;;;8.43;5.93;;;23.30;56.20;;;;;;6114879;28;80469;-61
2023/05/25 00:40:06;;;;;;;9.30;5.88;;;23.30;56.10;;;;;;6116568;28;80495;-61
2023/05/25 00:43:06;;;;;;;8.73;6.45;;;23.30;56.10;;;;;;6116583;28;80725;-64
2023/05/25 00:46:07;;;;;;;9.38;5.22;;;23.30;56.10;;;;;;6138802;28;81309;-63
2023/05/25 00:49:07;;;;;;;7.70;5.45;;;23.30;56.20;;;;;;6111892;28;80372;-62
2023/05/25 00:52:08;;;;;;;9.82;5.82;;;23.30;56.10;;;;;;6116461;28;82114;-62
2023/05/25 00:55:08;;;;;;;7.38;5.28;;;23.30;56.10;;;;;;6105205;28;81389;-60
2023/05/25 00:58:09;;;;;;;8.32;5.25;;;23.30;56.10;;;;;;6106690;28;80825;-61
2023/05/25 01:01:12;;;;;;;8.38;5.43;;;23.30;56.10;;;;;;6127610;28;80644;-64
2023/05/25 01:04:13;;;;;;;7.43;4.75;;;23.30;56.10;;;;;;6126743;28;80574;-63
2023/05/25 01:07:14;;;;;;;7.13;5.15;;;23.30;56.00;;;;;;6126667;28;80228;-63
2023/05/25 01:10:15;;;;;;;7.13;4.75;;;23.30;56.00;;;;;;6125678;28;81913;-64
2023/05/25 01:13:15;;;;;;;5.32;4.70;;;23.30;56.00;;;;;;6126762;28;80544;-64
2023/05/25 01:16:16;;;;;;;8.93;5.40;;;23.30;55.90;;;;;;6125630;28;81237;-63
2023/05/25 01:19:17;;;;;;;5.72;4.65;;;23.30;55.90;;;;;;6126946;28;81641;-62
2023/05/25 01:22:17;;;;;;;8.65;5.03;;;23.30;56.00;;;;;;6129667;28;80272;-62
2023/05/25 01:25:20;;;;;;;8.77;5.53;;;23.30;55.90;;;;;;6129906;28;80935;-61
2023/05/25 01:28:21;;;;;;;8.95;5.25;;;23.30;55.90;;;;;;6129192;28;83120;-63
2023/05/25 01:31:22;;;;;;;7.40;5.05;;;23.30;55.80;;;;;;6129245;28;80379;-60
2023/05/25 01:34:22;;;;;;;6.88;4.95;;;23.30;55.90;;;;;;6129000;28;83706;-59
2023/05/25 01:37:25;;;;;;;6.82;4.82;;;23.30;55.90;;;;;;6128750;28;82863;-60
2023/05/25 01:40:25;;;;;;;8.00;5.28;;;23.30;55.90;;;;;;6129391;28;80561;-59
2023/05/25 01:43:26;;;;;;;8.10;5.30;;;23.30;55.90;;;;;;6129079;28;80058;-60
2023/05/25 01:46:27;;;;;;;7.35;4.85;;;23.30;55.90;;;;;;6127175;28;81251;-60
2023/05/25 01:49:28;;;;;;;7.38;5.10;;;23.30;55.90;;;;;;6119896;28;80642;-59
2023/05/25 01:52:29;;;;;;;7.75;4.97;;;23.30;55.90;;;;;;6128287;28;83128;-62
2023/05/25 01:55:29;;;;;;;6.13;4.63;;;23.30;55.80;;;;;;6155811;28;82299;-62
2023/05/25 01:58:30;;;;;;;7.65;4.90;;;23.30;55.80;;;;;;6129386;28;81791;-62
2023/05/25 02:01:31;;;;;;;7.60;5.60;;;23.30;55.80;;;;;;6123614;28;83416;-59
2023/05/25 02:04:31;;;;;;;6.95;5.03;;;23.30;55.80;;;;;;6121093;28;83443;-60
2023/05/25 02:07:32;;;;;;;7.47;5.22;;;23.30;55.90;;;;;;6130171;28;82409;-60
2023/05/25 02:10:32;;;;;;;8.13;5.60;;;23.30;55.80;;;;;;6106440;28;80408;-60
2023/05/25 02:13:33;;;;;;;9.43;5.45;;;23.30;55.80;;;;;;6134372;28;81226;-60
2023/05/25 02:16:33;;;;;;;6.57;4.65;;;23.30;55.80;;;;;;6117039;28;81428;-61
2023/05/25 02:19:34;;;;;;;9.43;5.10;;;23.30;56.00;;;;;;6129897;28;81319;-63
2023/05/25 02:22:36;;;;;;;6.70;4.93;;;23.30;55.80;;;;;;6135812;28;82258;-62
2023/05/25 02:25:37;;;;;;;7.90;5.20;;;23.30;55.80;;;;;;6114778;28;83622;-62
2023/05/25 02:28:37;;;;;;;8.48;5.50;;;23.30;55.80;;;;;;6114226;28;80419;-61
2023/05/25 02:31:38;;;;;;;10.02;5.25;;;23.30;55.80;;;;;;6121591;28;81191;-61
2023/05/25 02:34:38;;;;;;;9.10;6.00;;;23.30;55.80;;;;;;6122983;28;80779;-61
2023/05/25 02:37:40;;;;;;;8.27;5.90;;;23.30;55.70;;;;;;6128330;28;81739;-62
2023/05/25 02:40:41;;;;;;;8.00;5.10;;;23.30;55.90;;;;;;6120008;28;84234;-62
2023/05/25 02:43:42;;;;;;;9.52;6.05;;;23.30;55.90;;;;;;6116915;28;84083;-61
2023/05/25 02:46:43;;;;;;;8.20;5.88;;;23.30;55.80;;;;;;6119431;28;82298;-63
2023/05/25 02:49:46;;;;;;;8.48;5.78;;;23.30;55.70;;;;;;6136543;28;83161;-63
2023/05/25 02:52:46;;;;;;;8.48;5.80;;;23.30;55.80;;;;;;6126904;28;81406;-62
2023/05/25 02:55:47;;;;;;;8.50;6.10;;;23.20;55.70;;;;;;6114207;28;82468;-62
2023/05/25 02:58:52;;;;;;;11.18;6.40;;;23.20;55.70;;;;;;6119686;28;83079;-62
2023/05/25 03:02:00;;;;;;;9.27;5.60;;;23.20;55.70;;;;;;6139513;28;82406;-63
2023/05/25 03:05:01;;;;;;;9.52;6.05;;;23.20;55.70;;;;;;6130924;28;82523;-61
2023/05/25 03:08:02;;;;;;;8.13;5.75;;;23.20;55.70;;;;;;6113826;28;80993;-62
2023/05/25 03:11:04;;;;;;;10.38;6.10;;;23.30;55.70;;;;;;6120010;28;82663;-65
2023/05/25 03:14:05;;;;;;;9.02;6.03;;;23.20;55.70;;;;;;6129557;28;83029;-63
2023/05/25 03:17:07;;;;;;;8.82;5.63;;;23.20;55.70;;;;;;6117591;28;82672;-61
2023/05/25 03:20:09;;;;;;;11.63;7.05;;;23.20;55.90;;;;;;6116064;28;80355;-59
2023/05/25 03:23:11;;;;;;;11.65;6.05;;;23.30;55.90;;;;;;6155039;28;83091;-59
2023/05/25 03:26:13;;;;;;;13.38;6.88;;;23.30;55.80;;;;;;6125349;28;82441;-57
2023/05/25 03:29:14;;;;;;;11.18;7.47;;;23.30;55.80;;;;;;6125439;28;87735;-57
2023/05/25 03:32:15;;;;;;;12.48;7.60;;;23.30;55.70;;;;;;6124948;28;82358;-59
2023/05/25 03:35:16;;;;;;;16.15;7.38;;;23.20;55.60;;;;;;6122360;28;83222;-58
2023/05/25 03:38:16;;;;;;;9.68;6.85;;;23.20;55.60;;;;;;6110767;28;82087;-58
2023/05/25 03:41:17;;;;;;;11.77;7.28;;;23.20;55.50;;;;;;6118555;28;84076;-61
2023/05/25 03:44:17;;;;;;;9.10;6.90;;;23.20;55.50;;;;;;6126967;28;82266;-60
2023/05/25 03:47:18;;;;;;;13.98;7.35;;;23.20;55.50;;;;;;6117682;28;80412;-62
2023/05/25 03:50:19;;;;;;;14.07;7.68;;;23.30;55.60;;;;;;6124261;28;86556;-63
2023/05/25 03:53:20;;;;;;;11.18;7.40;;;23.30;55.60;;;;;;6126964;28;80196;-60
2023/05/25 03:56:20;;;;;;;10.88;7.47;;;23.20;55.50;;;;;;6119465;28;80759;-63
2023/05/25 03:59:21;;;;;;;10.50;8.15;;;23.20;55.50;;;;;;6127150;28;82283;-63
2023/05/25 04:02:21;;;;;;;9.88;7.70;;;23.20;55.60;;;;;;6126194;28;83155;-62
2023/05/25 04:05:22;;;;;;;11.50;7.43;;;23.30;55.60;;;;;;6127575;28;81033;-61
2023/05/25 04:08:22;;;;;;;9.95;7.20;;;23.30;55.60;;;;;;6125871;28;82517;-64
2023/05/25 04:11:24;;;;;;;11.40;7.93;;;23.30;55.70;;;;;;6126326;28;80591;-65
2023/05/25 04:14:25;;;;;;;15.00;7.90;;;23.30;55.80;;;;;;6124978;28;82778;-63
2023/05/25 04:17:26;;;;;;;15.77;8.80;;;23.30;55.80;;;;;;6124255;28;83273;-65
2023/05/25 04:20:26;;;;;;;15.07;9.10;;;23.20;55.70;;;;;;6121780;28;81576;-62
2023/05/25 04:23:28;;;;;;;16.15;8.77;;;23.30;55.80;;;;;;6131828;28;82809;-62
2023/05/25 04:26:30;;;;;;;16.40;9.15;;;23.30;56.10;;;;;;6122297;28;80443;-60
2023/05/25 04:29:31;;;;;;;22.30;10.07;;;23.30;56.00;;;;;;6122506;28;80292;-60
2023/05/25 04:32:49;;;;;;;16.88;10.52;;;23.30;56.00;;;;;;6120754;28;84044;-63
2023/05/25 04:36:04;;;;;;;23.50;10.75;;;23.30;55.90;;;;;;6116026;28;85463;-62
2023/05/25 04:39:06;;;;;;;19.90;10.27;;;23.30;55.90;;;;;;6117333;28;85229;-62
2023/05/25 04:42:09;;;;;;;24.50;12.02;;;23.30;56.10;;;;;;6125150;28;84832;-62
2023/05/25 04:45:16;;;;;;;20.20;11.20;;;23.30;56.10;;;;;;6125068;28;86179;-62
2023/05/25 04:48:17;;;;;;;18.70;11.63;;;23.30;56.00;;;;;;6137404;28;86119;-63
2023/05/25 04:51:17;;;;;;;23.33;11.05;;;23.20;56.00;;;;;;6114127;28;86172;-63
2023/05/25 04:54:18;;;;;;;18.35;12.13;;;23.30;56.00;;;;;;6115502;28;85578;-62
2023/05/25 04:57:18;;;;;;;23.60;12.98;;;23.20;55.80;;;;;;6124322;28;89464;-63
2023/05/25 05:00:20;;;;;;;22.63;12.57;;;23.20;55.80;;;;;;6119620;28;85888;-63
2023/05/25 05:03:22;;;;;;;20.73;12.40;;;23.20;55.70;;;;;;6120292;28;85517;-63
2023/05/25 05:06:24;;;;;;;18.92;11.70;;;23.20;55.70;;;;;;6118867;28;86234;-63
2023/05/25 05:09:25;;;;;;;19.30;12.40;;;23.20;55.60;;;;;;6121076;28;84887;-62
2023/05/25 05:12:29;;;;;;;21.85;12.35;;;23.20;55.60;;;;;;6113115;28;89633;-62
2023/05/25 05:15:33;;;;;;;18.60;12.90;;;23.20;55.60;;;;;;6104368;28;84400;-62
2023/05/25 05:18:33;;;;;;;22.50;13.00;;;23.20;55.50;;;;;;6122072;28;86052;-62
2023/05/25 05:21:34;;;;;;;18.00;11.73;;;23.20;55.50;;;;;;6133881;28;85680;-62
2023/05/25 05:24:37;;;;;;;23.02;13.75;;;23.20;55.60;;;;;;6124693;28;85898;-59
2023/05/25 05:27:38;;;;;;;23.42;15.55;;;23.10;55.00;;;;;;6108839;28;82963;-57
2023/05/25 05:30:46;;;;;;;25.42;15.38;;;23.00;54.80;;;;;;6131262;28;85725;-58
2023/05/25 05:33:48;;;;;;;22.15;15.25;;;23.00;54.70;;;;;;6124600;28;85056;-58
2023/05/25 05:36:49;;;;;;;27.48;15.43;;;22.90;54.70;;;;;;6129826;28;85482;-58
2023/05/25 05:39:52;;;;;;;24.13;15.32;;;22.80;54.70;;;;;;6134931;28;85805;-57
2023/05/25 05:42:52;;;;;;;23.27;15.32;;;22.80;54.70;;;;;;6125038;28;85547;-63
2023/05/25 05:45:53;;;;;;;25.30;15.85;;;22.80;55.00;;;;;;6134174;28;85275;-60
2023/05/25 05:48:53;;;;;;;19.92;13.77;;;22.80;55.00;;;;;;6114491;28;83107;-59
2023/05/25 05:51:54;;;;;;;22.15;14.77;;;22.80;55.00;;;;;;6121910;28;82921;-59
2023/05/25 05:54:55;;;;;;;27.30;15.57;;;22.80;55.00;;;;;;6112506;28;87236;-59
2023/05/25 05:57:55;;;;;;;27.02;16.40;;;22.80;55.00;;;;;;6119196;28;84977;-59
2023/05/25 06:00:56;;;;;;;24.42;15.80;;;22.80;54.90;;;;;;6124380;28;84987;-60
2023/05/25 06:03:57;;;;;;;28.52;15.65;;;22.80;54.80;;;;;;6121812;28;83208;-59
2023/05/25 06:06:57;;;;;;;27.85;15.63;;;22.70;54.70;;;;;;6113884;28;85690;-60
2023/05/25 06:09:58;;;;;;;23.42;16.20;;;22.80;54.60;;;;;;6101864;28;82860;-60
2023/05/25 06:12:58;;;;;;;23.88;15.38;;;22.80;54.60;;;;;;6100044;28;83082;-70
2023/05/25 06:16:00;;;;;;;22.42;15.80;;;22.70;54.50;;;;;;6114829;28;85323;-69
2023/05/25 06:19:00;;;;;;;19.67;13.98;;;22.80;54.40;;;;;;6115341;28;83025;-67
2023/05/25 06:22:01;;;;;;;22.25;14.57;;;22.80;54.40;;;;;;6119620;28;86053;-66
2023/05/25 06:25:01;;;;;;;21.85;14.05;;;22.80;54.30;;;;;;6122501;28;84433;-66
2023/05/25 06:28:02;;;;;;;17.98;14.65;;;22.80;54.20;;;;;;6122783;28;86277;-66
2023/05/25 06:31:02;;;;;;;19.17;14.15;;;22.80;54.10;;;;;;6122060;28;83193;-59
2023/05/25 06:34:03;;;;;;;20.45;14.15;;;22.80;54.10;;;;;;6125015;28;85914;-59
2023/05/25 06:37:03;;;;;;;20.85;14.15;;;22.80;54.00;;;;;;6123407;28;84585;-60
2023/05/25 06:40:04;;;;;;;21.95;14.85;;;22.80;53.90;;;;;;6124004;28;86139;-58
2023/05/25 06:43:05;;;;;;;18.58;14.27;;;22.80;53.90;;;;;;6124490;28;85517;-59
2023/05/25 06:46:21;;;;;;;21.42;15.05;;;22.80;54.00;;;;;;6124569;28;85662;-59
2023/05/25 06:49:22;;;;;;;19.45;13.98;;;22.80;53.80;;;;;;6114540;28;82808;-59
2023/05/25 06:52:22;;;;;;;23.27;15.15;;;22.80;53.80;;;;;;6126636;28;83616;-59
2023/05/25 06:55:23;;;;;;;19.70;13.65;;;22.80;53.70;;;;;;6125470;28;83937;-60
2023/05/25 06:58:23;;;;;;;21.52;14.70;;;22.80;53.80;;;;;;6123912;28;82974;-59
2023/05/25 07:01:24;;;;;;;22.77;15.35;;;22.80;53.80;;;;;;6125098;28;83110;-59
2023/05/25 07:04:25;;;;;;;20.05;14.90;;;22.80;54.40;;;;;;6108862;28;84595;-59
2023/05/25 07:07:25;;;;;;;20.88;15.82;;;22.80;53.70;;;;;;6120727;28;83953;-61
2023/05/25 07:10:26;;;;;;;18.90;14.55;;;22.80;53.70;;;;;;6102130;28;85336;-61
2023/05/25 07:13:27;;;;;;;22.92;15.70;;;22.80;53.80;;;;;;6100007;28;85124;-58
2023/05/25 07:16:27;;;;;;;39.30;17.73;;;22.80;53.90;;;;;;6115582;28;83132;-59
2023/05/25 07:19:28;;;;;;;33.83;16.60;;;22.80;54.00;;;;;;6122800;28;83906;-60
2023/05/25 07:22:28;;;;;;;43.25;18.40;;;22.80;54.00;;;;;;6124225;28;83058;-60
2023/05/25 07:25:29;;;;;;;33.90;18.75;;;22.90;53.90;;;;;;6118079;28;83381;-60
2023/05/25 07:28:30;;;;;;;41.63;19.50;;;22.90;54.00;;;;;;6123626;28;82913;-58
2023/05/25 07:31:30;;;;;;;51.20;21.75;;;22.90;54.00;;;;;;6121208;28;84354;-62
2023/05/25 07:34:31;;;;;;;64.97;26.00;;;22.90;54.00;;;;;;6125057;28;83990;-58
2023/05/25 07:37:31;;;;;;;58.42;25.42;;;22.90;54.00;;;;;;6103843;28;84367;-59
2023/05/25 07:40:32;;;;;;;74.13;26.30;;;22.90;54.00;;;;;;6110653;28;84352;-59
2023/05/25 07:43:32;;;;;;;55.60;26.35;;;22.90;54.00;;;;;;6119125;28;83337;-59
2023/05/25 07:46:33;;;;;;;60.67;25.95;;;22.90;53.90;;;;;;6107682;28;85183;-59
2023/05/25 07:49:33;;;;;;;54.65;26.42;;;22.90;53.90;;;;;;6109010;28;83632;-60
2023/05/25 07:52:34;;;;;;;44.28;25.45;;;22.90;53.90;;;;;;6108463;28;83461;-58
2023/05/25 07:55:35;;;;;;;51.67;25.67;;;22.90;54.00;;;;;;6110119;28;82953;-58
2023/05/25 07:58:35;;;;;;;46.33;24.92;;;22.90;53.90;;;;;;6119873;28;82897;-59
2023/05/25 08:01:37;;;;;;;54.05;27.83;;;22.90;53.90;;;;;;6106409;28;83705;-60
2023/05/25 08:04:38;;;;;;;53.85;27.30;;;22.90;54.50;;;;;;6109214;28;83671;-59
2023/05/25 08:07:38;;;;;;;49.58;27.90;;;22.80;53.80;;;;;;6128838;28;85958;-59
2023/05/25 08:10:39;;;;;;;53.33;29.88;;;22.80;53.90;;;;;;6108556;28;88844;-59
2023/05/25 08:13:39;;;;;;;51.28;27.60;;;22.80;54.00;;;;;;6109222;28;83816;-60
2023/05/25 08:16:40;;;;;;;47.83;28.13;;;22.80;54.20;;;;;;6121254;28;84110;-62
2023/05/25 08:19:40;;;;;;;48.53;27.42;;;22.80;54.00;;;;;;6118340;28;86013;-59
2023/05/25 08:22:42;;;;;;;53.50;27.50;;;22.80;54.00;;;;;;6113061;28;84480;-63
2023/05/25 08:25:42;;;;;;;47.50;28.70;;;22.80;54.20;;;;;;6111197;28;82849;-60
2023/05/25 08:28:43;;;;;;;48.22;28.08;;;22.80;54.00;;;;;;6107812;28;83521;-60
2023/05/25 08:31:48;;;;;;;44.17;27.40;;;22.80;54.00;;;;;;6116319;28;86425;-59
2023/05/25 08:34:48;;;;;;;47.33;27.33;;;22.90;54.20;;;;;;6123585;28;83416;-60
2023/05/25 08:37:49;;;;;;;45.70;25.73;;;22.90;54.00;;;;;;6124806;28;83332;-60
2023/05/25 08:40:50;;;;;;;37.42;23.17;;;22.90;54.00;;;;;;6124946;28;82862;-68
2023/05/25 08:43:50;;;;;;;37.72;22.13;;;22.90;54.10;;;;;;6081390;28;84891;-64
2023/05/25 08:46:51;;;;;;;37.45;22.70;;;22.90;54.20;;;;;;5986739;28;84677;-67
2023/05/25 08:49:51;;;;;;;38.33;23.83;;;22.90;54.40;;;;;;6096446;28;83557;-68
2023/05/25 08:52:52;;;;;;;36.28;22.75;;;22.80;54.60;;;;;;6097333;28;87846;-73
2023/05/25 08:55:52;;;;;;;37.88;22.42;;;22.70;54.80;;;;;;6101669;28;83599;-65
2023/05/25 08:58:53;;;;;;;42.95;21.02;;;22.70;55.10;;;;;;6108851;28;83983;-58
2023/05/25 09:01:53;;;;;;;37.20;20.85;;;22.70;55.00;;;;;;6096206;28;84028;-58
2023/05/25 09:04:54;;;;;;;31.35;19.42;;;22.80;55.20;;;;;;6106382;28;90611;-58
2023/05/25 09:07:54;;;;;;;33.00;18.73;;;22.80;54.90;;;;;;6102127;28;83206;-59
2023/05/25 09:10:55;;;;;;;37.65;20.95;;;22.90;54.90;;;;;;6108547;28;85941;-58
2023/05/25 09:13:56;;;;;;;29.60;19.73;;;22.80;54.90;;;;;;6098406;28;84045;-58
2023/05/25 09:16:56;;;;;;;28.58;18.80;;;22.80;54.90;;;;;;6105660;28;86874;-59
2023/05/25 09:19:57;;;;;;;31.52;19.60;;;22.80;55.30;;;;;;6100750;28;84731;-58
2023/05/25 09:23:01;;;;;;;34.05;18.88;;;22.80;55.10;;;;;;6102648;28;88965;-58
2023/05/25 09:26:02;;;;;;;29.95;18.92;;;22.90;54.90;;;;;;6099853;28;83803;-59
2023/05/25 09:29:02;;;;;;;28.80;18.30;;;22.90;54.70;;;;;;6091940;28;85034;-59
2023/05/25 09:32:03;;;;;;;26.48;17.60;;;22.90;54.90;;;;;;6111813;28;83319;-58
2023/05/25 09:35:03;;;;;;;23.92;16.63;;;22.90;54.80;;;;;;6120595;28;85911;-58
2023/05/25 09:38:04;;;;;;;26.00;17.45;;;22.90;54.80;;;;;;6096568;28;84712;-56
2023/05/25 09:41:05;;;;;;;26.98;18.55;;;22.90;54.70;;;;;;6112389;28;84191;-57
2023/05/25 09:44:06;;;;;;;24.73;17.58;;;22.90;55.10;;;;;;6106095;28;85306;-57
2023/05/25 09:47:06;;;;;;;29.48;17.92;;;22.90;56.00;;;;;;6109815;28;84342;-57
2023/05/25 09:50:07;;;;;;;26.88;19.13;;;22.90;56.80;;;;;;6112120;28;84663;-58
2023/05/25 09:53:07;;;;;;;26.17;18.50;;;22.90;57.60;;;;;;6121628;28;84587;-59
2023/05/25 09:56:08;;;;;;;28.75;18.30;;;22.90;58.40;;;;;;6130323;28;84465;-58
2023/05/25 09:59:08;;;;;;;27.85;18.55;;;22.90;59.70;;;;;;6099575;28;84706;-59
2023/05/25 10:02:09;;;;;;;25.67;17.55;;;22.90;60.10;;;;;;6120543;28;88972;-60
2023/05/25 10:05:09;;;;;;;22.90;16.48;;;22.90;59.60;;;;;;6111676;28;85157;-60
2023/05/25 10:08:10;;;;;;;26.17;17.70;;;22.90;60.50;;;;;;6103002;28;85487;-60
2023/05/25 10:11:10;;;;;;;26.23;18.10;;;22.90;60.60;;;;;;6114511;28;86939;-59
2023/05/25 10:14:11;;;;;;;24.67;18.63;;;22.90;59.70;;;;;;6109293;28;84112;-59
2023/05/25 10:17:11;;;;;;;30.85;19.80;;;22.90;59.70;;;;;;6110915;28;84889;-59
2023/05/25 10:20:12;;;;;;;26.95;19.52;;;22.80;60.20;;;;;;6109629;28;88769;-59
2023/05/25 10:23:12;;;;;;;29.40;19.83;;;22.90;60.20;;;;;;6107791;28;88239;-60
2023/05/25 10:26:13;;;;;;;27.58;19.33;;;22.90;60.60;;;;;;6105524;28;84679;-61
2023/05/25 10:29:13;;;;;;;25.80;19.02;;;22.90;59.90;;;;;;6113797;28;86470;-65
2023/05/25 10:32:14;;;;;;;23.60;19.17;;;22.90;60.80;;;;;;6111750;28;87489;-63
2023/05/25 10:35:15;;;;;;;27.17;19.67;;;22.90;60.90;;;;;;6114393;28;83371;-66
2023/05/25 10:38:15;;;;;;;26.58;19.15;;;22.90;60.90;;;;;;6118264;28;84831;-64
2023/05/25 10:41:16;;;;;;;31.90;21.02;;;22.90;60.30;;;;;;6102104;28;83943;-64
2023/05/25 10:44:17;;;;;;;26.25;19.80;;;22.90;60.90;;;;;;6107265;28;83650;-64
2023/05/25 10:47:17;;;;;;;27.90;19.33;;;22.90;61.10;;;;;;6101142;28;86079;-61
2023/05/25 10:50:18;;;;;;;28.77;21.13;;;22.90;61.30;;;;;;6109198;28;83161;-62
2023/05/25 10:53:19;;;;;;;28.88;21.45;;;22.90;61.30;;;;;;6130588;28;85612;-62
2023/05/25 10:56:20;;;;;;;28.85;21.25;;;22.90;61.60;;;;;;6107804;28;82886;-63
2023/05/25 10:59:20;;;;;;;28.45;21.35;;;22.90;61.40;;;;;;6123078;28;83585;-64
2023/05/25 11:02:22;;;;;;;28.60;21.67;;;22.90;61.40;;;;;;6111317;28;83169;-65
2023/05/25 11:05:22;;;;;;;30.27;22.42;;;22.90;61.40;;;;;;6102461;28;83343;-63
2023/05/25 11:08:23;;;;;;;32.33;22.10;;;22.90;61.90;;;;;;6117239;28;82899;-63
2023/05/25 11:11:23;;;;;;;33.97;24.40;;;22.90;62.50;;;;;;6113250;28;84908;-65
2023/05/25 11:14:25;;;;;;;30.85;22.73;;;22.90;62.10;;;;;;6110111;28;83573;-64
2023/05/25 11:17:31;;;;;;;30.75;22.80;;;22.90;63.00;;;;;;6112480;28;83040;-65
2023/05/25 11:20:32;;;;;;;31.02;21.25;;;22.90;65.30;;;;;;6111002;28;84541;-66
2023/05/25 11:23:33;;;;;;;29.98;22.27;;;22.90;65.50;;;;;;6101670;28;84620;-65
2023/05/25 11:26:34;;;;;;;30.98;22.35;;;22.90;64.90;;;;;;6113974;28;83809;-60
2023/05/25 11:29:36;;;;;;;32.22;22.75;;;22.90;64.60;;;;;;6110991;28;83334;-61
2023/05/25 11:32:38;;;;;;;28.90;22.02;;;22.90;63.90;;;;;;6104490;28;88228;-61
2023/05/25 11:35:39;;;;;;;39.65;22.85;;;22.80;64.90;;;;;;6106548;28;83125;-61
2023/05/25 11:38:40;;;;;;;30.30;21.95;;;22.90;65.20;;;;;;6074122;28;87635;-61
2023/05/25 11:41:41;;;;;;;31.23;21.85;;;22.90;64.70;;;;;;6103924;28;83359;-61
2023/05/25 11:44:42;;;;;;;30.33;22.13;;;22.80;64.70;;;;;;6107067;28;83156;-60
2023/05/25 11:47:42;;;;;;;30.15;23.13;;;22.90;65.40;;;;;;6102539;28;83275;-60
2023/05/25 11:50:43;;;;;;;37.25;23.00;;;22.90;65.50;;;;;;6119369;28;84948;-59
2023/05/25 11:53:43;;;;;;;29.58;22.80;;;22.90;65.50;;;;;;6099006;28;85031;-60
2023/05/25 11:56:44;;;;;;;33.20;23.30;;;22.90;65.00;;;;;;6113319;28;83538;-60
2023/05/25 11:59:44;;;;;;;28.63;21.05;;;22.90;65.30;;;;;;6111565;28;83397;-61
2023/05/25 12:02:45;;;;;;;33.28;22.70;;;22.90;65.70;;;;;;6107671;28;84429;-61
2023/05/25 12:05:45;;;;;;;32.88;23.00;;;22.90;66.20;;;;;;6107950;28;88287;-60
2023/05/25 12:08:46;;;;;;;29.42;22.08;;;22.80;65.90;;;;;;6111959;28;87818;-59
2023/05/25 12:11:46;;;;;;;30.50;21.92;;;22.90;66.30;;;;;;6117769;28;83157;-56
2023/05/25 12:14:47;;;;;;;33.13;21.63;;;22.90;67.30;;;;;;6110050;28;83576;-59
2023/05/25 12:17:47;;;;;;;33.25;22.35;;;22.80;65.50;;;;;;6110126;28;84112;-61
2023/05/25 12:20:48;;;;;;;26.45;21.30;;;22.80;66.30;;;;;;6101723;28;83124;-60
2023/05/25 12:23:49;;;;;;;26.25;19.80;;;22.90;66.10;;;;;;6108466;28;83572;-60
2023/05/25 12:26:49;;;;;;;28.58;21.10;;;22.80;66.80;;;;;;6128825;28;83620;-60
2023/05/25 12:29:51;;;;;;;27.23;19.88;;;22.80;66.50;;;;;;6109554;28;83235;-60
2023/05/25 12:32:52;;;;;;;29.17;19.42;;;22.80;66.80;;;;;;6104393;28;83705;-61
2023/05/25 12:35:54;;;;;;;28.33;20.05;;;22.80;66.00;;;;;;6107935;28;86187;-60
2023/05/25 12:38:55;;;;;;;27.75;20.45;;;22.80;66.50;;;;;;6098894;28;84557;-62
2023/05/25 12:41:55;;;;;;;27.42;19.35;;;22.80;67.30;;;;;;6101115;28;83199;-62
2023/05/25 12:45:00;;;;;;;30.30;20.63;;;22.80;67.90;;;;;;6104404;28;84375;-62
2023/05/25 12:48:01;;;;;;;28.90;20.33;;;22.80;67.30;;;;;;6106970;28;87144;-62
2023/05/25 12:51:01;;;;;;;27.48;20.73;;;22.80;67.70;;;;;;6107043;28;84754;-62
2023/05/25 12:54:02;;;;;;;30.00;20.17;;;22.80;68.10;;;;;;6102524;28;83342;-62
2023/05/25 12:57:02;;;;;;;26.20;20.02;;;22.80;68.40;;;;;;6118036;28;84028;-62
2023/05/25 13:00:03;;;;;;;28.20;19.88;;;22.80;67.50;;;;;;6099319;28;83648;-63
2023/05/25 13:03:06;;;;;;;29.08;19.92;;;22.80;67.60;;;;;;6098152;28;86691;-59
2023/05/25 13:06:06;;;;;;;28.15;19.98;;;22.80;66.70;;;;;;6097917;28;83316;-58
2023/05/25 13:09:07;;;;;;;24.65;19.60;;;22.80;67.30;;;;;;6103921;28;83707;-61
2023/05/25 13:12:08;;;;;;;152.27;74.65;;;22.80;66.10;;;;;;6104305;28;83705;-60
2023/05/25 13:15:09;;;;;;;193.85;98.43;;;22.80;66.40;;;;;;6109090;28;83042;-61
2023/05/25 13:18:09;;;;;;;290.67;151.18;;;22.80;67.10;;;;;;6116460;28;83593;-61
2023/05/25 13:21:10;;;;;;;374.17;190.75;;;22.90;68.10;;;;;;6109230;28;87084;-60
2023/05/25 13:24:10;;;;;;;352.80;182.35;;;22.90;66.90;;;;;;6113100;28;85907;-59
2023/05/25 13:27:11;;;;;;;332.13;163.90;;;22.90;67.10;;;;;;6108906;28;87097;-61
2023/05/25 13:30:12;;;;;;;317.63;153.13;;;22.90;66.20;;;;;;6108868;28;86322;-61
2023/05/25 13:33:12;;;;;;;247.30;127.13;;;22.90;66.50;;;;;;6097536;28;86700;-61
2023/05/25 13:36:14;;;;;;;202.77;103.93;;;22.90;66.50;;;;;;6112018;28;85677;-61
2023/05/25 13:39:14;;;;;;;155.23;84.47;;;22.90;66.40;;;;;;6111282;28;85946;-61
2023/05/25 13:42:15;;;;;;;127.28;70.45;;;22.80;64.30;;;;;;6109864;28;86324;-63
2023/05/25 13:45:15;;;;;;;112.80;62.00;;;22.80;63.10;;;;;;6137532;28;83226;-62
2023/05/25 13:48:16;;;;;;;90.68;52.35;;;22.70;63.20;;;;;;6114544;28;82826;-62
2023/05/25 13:51:17;;;;;;;80.53;44.88;;;22.70;62.90;;;;;;6127032;28;84258;-60
2023/05/25 13:54:17;;;;;;;71.88;42.60;;;22.60;62.60;;;;;;6125359;28;83618;-59
2023/05/25 13:57:18;;;;;;;69.15;41.17;;;22.60;62.70;;;;;;6102882;28;83122;-59
2023/05/25 14:00:18;;;;;;;58.05;35.45;;;22.60;62.10;;;;;;6115360;28;86046;-62
2023/05/25 14:03:19;;;;;;;57.78;35.83;;;22.60;62.30;;;;;;6116130;28;87953;-60
2023/05/25 14:06:19;;;;;;;55.97;33.92;;;22.60;62.50;;;;;;6116734;28;84790;-61
2023/05/25 14:09:20;;;;;;;50.67;30.38;;;22.70;62.80;;;;;;6115637;28;83084;-61
2023/05/25 14:12:20;;;;;;;51.55;31.08;;;22.70;63.30;;;;;;6116839;28;83277;-60
2023/05/25 14:15:21;;;;;;;46.17;28.90;;;22.70;64.10;;;;;;6128678;28;84003;-61
2023/05/25 14:18:21;;;;;;;43.72;27.88;;;22.70;63.00;;;;;;6118311;28;84721;-60
2023/05/25 14:21:22;;;;;;;43.00;27.23;;;22.70;62.50;;;;;;6117816;28;83976;-61
2023/05/25 14:24:22;;;;;;;44.85;29.10;;;22.70;62.60;;;;;;6115547;28;83218;-62
2023/05/25 14:27:23;;;;;;;45.80;28.67;;;22.70;63.60;;;;;;6115640;28;83621;-62
2023/05/25 14:30:23;;;;;;;41.42;25.73;;;22.70;62.90;;;;;;6122945;28;83591;-62
2023/05/25 14:33:24;;;;;;;38.25;26.58;;;22.70;62.90;;;;;;6124010;28;83184;-61
2023/05/25 14:36:25;;;;;;;38.15;25.83;;;22.70;62.40;;;;;;6124495;28;83047;-63
2023/05/25 14:39:25;;;;;;;40.08;26.40;;;22.70;61.80;;;;;;6126269;28;83170;-61
2023/05/25 14:42:26;;;;;;;39.40;26.08;;;22.70;62.70;;;;;;6123436;28;83446;-61
2023/05/25 14:45:26;;;;;;;33.75;24.55;;;22.60;61.60;;;;;;6122948;28;83393;-62
2023/05/25 14:48:27;;;;;;;34.00;24.90;;;22.60;62.00;;;;;;6111347;28;84050;-64
2023/05/25 14:51:28;;;;;;;38.50;25.33;;;22.60;62.30;;;;;;6131523;28;83156;-62
2023/05/25 14:54:28;;;;;;;33.80;22.52;;;22.60;61.60;;;;;;6105714;28;84825;-63
2023/05/25 14:57:29;;;;;;;38.05;24.70;;;22.60;63.20;;;;;;6120681;28;84108;-63
2023/05/25 15:00:29;;;;;;;35.25;24.20;;;22.70;63.20;;;;;;6118645;28;86242;-64
2023/05/25 15:03:31;;;;;;;31.52;21.85;;;22.70;63.80;;;;;;6116005;28;83257;-64
2023/05/25 15:06:32;;;;;;;32.65;22.05;;;22.80;64.00;;;;;;6106166;28;84590;-73
2023/05/25 15:09:32;;;;;;;34.67;23.63;;;22.80;64.70;;;;;;6103712;28;87531;-68
2023/05/25 15:12:33;;;;;;;38.80;22.95;;;22.90;65.10;;;;;;6103001;28;86995;-71
2023/05/25 15:15:33;;;;;;;33.63;22.48;;;22.90;65.40;;;;;;6108756;28;84012;-61
2023/05/25 15:18:34;;;;;;;33.45;21.63;;;22.90;66.10;;;;;;6110684;28;86049;-72
2023/05/25 15:21:36;;;;;;;39.90;22.38;;;23.00;66.20;;;;;;6106586;28;84471;-68